createdAt,value
2023-03-30T00:00:54.000Z,284.71
2023-03-30T00:02:20.000Z,284.71
2023-03-30T00:04:26.000Z,284.96
2023-03-30T00:05:53.000Z,284.77
2023-03-30T00:07:59.000Z,284.65
2023-03-30T00:09:26.000Z,284.65
2023-03-30T00:11:32.000Z,284.71
2023-03-30T00:12:58.000Z,284.77
2023-03-30T00:15:05.000Z,284.59
2023-03-30T00:16:31.000Z,284.71
2023-03-30T00:18:37.000Z,284.77
2023-03-30T00:20:04.000Z,284.77
2023-03-30T00:22:10.000Z,284.65
2023-03-30T00:23:37.000Z,284.65
2023-03-30T00:25:43.000Z,284.65
2023-03-30T00:27:10.000Z,284.59
2023-03-30T00:29:16.000Z,284.52
2023-03-30T00:32:07.000Z,284.46
2023-03-30T00:33:34.000Z,284.4
2023-03-30T00:35:50.000Z,284.4
2023-03-30T00:37:17.000Z,284.34
2023-03-30T00:39:23.000Z,284.27
2023-03-30T00:40:50.000Z,284.21
2023-03-30T00:42:56.000Z,284.15
2023-03-30T00:44:22.000Z,284.15
2023-03-30T00:46:28.000Z,284.21
2023-03-30T00:47:55.000Z,284.21
2023-03-30T00:50:02.000Z,284.46
2023-03-30T00:51:28.000Z,284.4
2023-03-30T00:53:34.000Z,284.4
2023-03-30T00:55:01.000Z,284.4
2023-03-30T00:57:07.000Z,284.27
2023-03-30T00:58:34.000Z,284.34
2023-03-30T01:00:40.000Z,284.27
2023-03-30T01:02:06.000Z,284.4
2023-03-30T01:04:13.000Z,284.21
2023-03-30T01:05:39.000Z,284.02
2023-03-30T01:07:45.000Z,284.02
2023-03-30T01:10:36.000Z,284.02
2023-03-30T01:12:03.000Z,284.09
2023-03-30T01:14:09.000Z,284.02
2023-03-30T01:15:35.000Z,284.09
2023-03-30T01:17:41.000Z,284.21
2023-03-30T01:19:08.000Z,284.27
2023-03-30T01:21:14.000Z,284.27
2023-03-30T01:22:41.000Z,284.34
2023-03-30T01:24:47.000Z,284.52
2023-03-30T01:26:13.000Z,284.46
2023-03-30T01:28:19.000Z,284.4
2023-03-30T01:29:46.000Z,284.4
2023-03-30T01:31:52.000Z,284.4
2023-03-30T01:33:19.000Z,284.34
2023-03-30T01:35:25.000Z,284.34
2023-03-30T01:36:51.000Z,284.15
2023-03-30T01:38:57.000Z,284.15
2023-03-30T01:40:24.000Z,284.15
2023-03-30T01:42:30.000Z,284.15
2023-03-30T01:43:57.000Z,284.09
2023-03-30T01:46:03.000Z,284.02
2023-03-30T01:48:54.000Z,284.09
2023-03-30T01:50:20.000Z,284.02
2023-03-30T01:52:26.000Z,283.96
2023-03-30T01:53:53.000Z,283.9
2023-03-30T01:55:59.000Z,284.02
2023-03-30T01:57:25.000Z,283.96
2023-03-30T01:59:32.000Z,283.9
2023-03-30T02:00:58.000Z,283.9
2023-03-30T02:03:04.000Z,283.96
2023-03-30T02:04:31.000Z,283.9
2023-03-30T02:06:37.000Z,283.9
2023-03-30T02:08:04.000Z,283.9
2023-03-30T02:10:10.000Z,283.65
2023-03-30T02:11:36.000Z,283.71
2023-03-30T02:13:42.000Z,283.77
2023-03-30T02:15:09.000Z,283.71
2023-03-30T02:17:15.000Z,283.59
2023-03-30T02:18:41.000Z,283.52
2023-03-30T02:20:47.000Z,283.77
2023-03-30T02:22:14.000Z,283.77
2023-03-30T02:24:20.000Z,283.84
2023-03-30T02:27:11.000Z,283.84
2023-03-30T02:28:38.000Z,283.84
2023-03-30T02:30:44.000Z,283.9
2023-03-30T02:32:10.000Z,284.15
2023-03-30T02:34:16.000Z,284.02
2023-03-30T02:35:43.000Z,284.02
2023-03-30T02:37:49.000Z,283.96
2023-03-30T02:39:15.000Z,284.09
2023-03-30T02:41:22.000Z,284.09
2023-03-30T02:42:48.000Z,284.09
2023-03-30T02:44:54.000Z,284.02
2023-03-30T02:46:21.000Z,283.96
2023-03-30T02:48:27.000Z,284.09
2023-03-30T02:49:53.000Z,284.15
2023-03-30T02:51:59.000Z,284.21
2023-03-30T02:53:26.000Z,284.21
2023-03-30T02:55:32.000Z,284.21
2023-03-30T02:56:59.000Z,284.15
2023-03-30T02:59:05.000Z,284.09
2023-03-30T03:00:31.000Z,284.09
2023-03-30T03:02:37.000Z,284.02
2023-03-30T03:05:29.000Z,284.09
2023-03-30T03:06:56.000Z,284.02
2023-03-30T03:09:02.000Z,284.21
2023-03-30T03:10:28.000Z,284.4
2023-03-30T03:12:34.000Z,284.46
2023-03-30T03:14:01.000Z,284.52
2023-03-30T03:16:07.000Z,284.4
2023-03-30T03:17:33.000Z,284.46
2023-03-30T03:19:39.000Z,284.59
2023-03-30T03:21:06.000Z,284.65
2023-03-30T03:23:12.000Z,284.65
2023-03-30T03:24:39.000Z,284.59
2023-03-30T03:26:45.000Z,284.46
2023-03-30T03:28:11.000Z,284.46
2023-03-30T03:30:17.000Z,284.4
2023-03-30T03:31:44.000Z,284.34
2023-03-30T03:33:50.000Z,284.21
2023-03-30T03:35:17.000Z,284.15
2023-03-30T03:37:23.000Z,284.09
2023-03-30T03:38:49.000Z,284.02
2023-03-30T03:40:55.000Z,284.02
2023-03-30T03:43:47.000Z,283.96
2023-03-30T03:45:13.000Z,283.9
2023-03-30T03:47:19.000Z,283.96
2023-03-30T03:48:46.000Z,283.96
2023-03-30T03:50:52.000Z,284.02
2023-03-30T03:52:19.000Z,284.02
2023-03-30T03:54:25.000Z,283.9
2023-03-30T03:55:51.000Z,283.96
2023-03-30T03:57:57.000Z,284.09
2023-03-30T03:59:24.000Z,284.02
2023-03-30T04:01:30.000Z,284.15
2023-03-30T04:02:56.000Z,284.15
2023-03-30T04:05:02.000Z,284.27
2023-03-30T04:06:29.000Z,284.34
2023-03-30T04:08:35.000Z,284.4
2023-03-30T04:10:02.000Z,284.34
2023-03-30T04:12:08.000Z,284.46
2023-03-30T04:13:35.000Z,284.34
2023-03-30T04:15:41.000Z,284.34
2023-03-30T04:17:07.000Z,284.34
2023-03-30T04:19:13.000Z,284.27
2023-03-30T04:22:05.000Z,284.21
2023-03-30T04:23:31.000Z,284.15
2023-03-30T04:25:37.000Z,284.02
2023-03-30T04:27:04.000Z,284.02
2023-03-30T04:29:10.000Z,284.02
2023-03-30T04:30:36.000Z,284.02
2023-03-30T04:32:43.000Z,284.02
2023-03-30T04:34:09.000Z,284.09
2023-03-30T04:36:15.000Z,284.02
2023-03-30T04:37:42.000Z,284.02
2023-03-30T04:39:48.000Z,283.96
2023-03-30T04:41:14.000Z,283.9
2023-03-30T04:43:21.000Z,283.9
2023-03-30T04:44:47.000Z,283.84
2023-03-30T04:46:55.000Z,283.77
2023-03-30T04:48:21.000Z,283.71
2023-03-30T04:50:27.000Z,283.71
2023-03-30T04:51:54.000Z,283.65
2023-03-30T04:54:00.000Z,283.59
2023-03-30T04:55:27.000Z,283.59
2023-03-30T04:57:33.000Z,283.59
2023-03-30T05:00:24.000Z,283.52
2023-03-30T05:01:51.000Z,283.59
2023-03-30T05:03:57.000Z,283.52
2023-03-30T05:05:23.000Z,283.52
2023-03-30T05:07:29.000Z,283.52
2023-03-30T05:08:56.000Z,283.52
2023-03-30T05:11:02.000Z,283.46
2023-03-30T05:12:29.000Z,283.52
2023-03-30T05:14:35.000Z,283.52
2023-03-30T05:16:02.000Z,283.46
2023-03-30T05:18:08.000Z,283.46
2023-03-30T05:19:34.000Z,283.4
2023-03-30T05:21:40.000Z,283.4
2023-03-30T05:23:07.000Z,283.4
2023-03-30T05:25:13.000Z,283.4
2023-03-30T05:26:40.000Z,283.4
2023-03-30T05:28:46.000Z,283.27
2023-03-30T05:30:12.000Z,283.27
2023-03-30T05:32:18.000Z,283.27
2023-03-30T05:33:45.000Z,283.27
2023-03-30T05:35:51.000Z,283.27
2023-03-30T05:38:42.000Z,283.27
2023-03-30T05:40:09.000Z,283.27
2023-03-30T05:42:15.000Z,283.27
2023-03-30T05:43:41.000Z,283.27
2023-03-30T05:45:48.000Z,283.34
2023-03-30T05:47:14.000Z,283.34
2023-03-30T05:49:20.000Z,283.34
2023-03-30T05:50:47.000Z,283.34
2023-03-30T05:52:53.000Z,283.34
2023-03-30T05:54:20.000Z,283.34
2023-03-30T05:56:26.000Z,283.34
2023-03-30T05:57:52.000Z,283.27
2023-03-30T05:59:59.000Z,283.27
2023-03-30T06:01:25.000Z,283.27
2023-03-30T06:03:31.000Z,283.27
2023-03-30T06:04:58.000Z,283.34
2023-03-30T06:07:04.000Z,283.34
2023-03-30T06:08:31.000Z,283.34
2023-03-30T06:10:37.000Z,283.34
2023-03-30T06:12:04.000Z,283.34
2023-03-30T06:14:10.000Z,283.4
2023-03-30T06:17:01.000Z,283.34
2023-03-30T06:18:27.000Z,283.4
2023-03-30T06:20:33.000Z,283.4
2023-03-30T06:22:00.000Z,283.4
2023-03-30T06:24:06.000Z,283.34
2023-03-30T06:25:32.000Z,283.34
2023-03-30T06:27:39.000Z,283.34
2023-03-30T06:29:09.000Z,283.34
2023-03-30T06:31:15.000Z,283.34
2023-03-30T06:32:41.000Z,283.4
2023-03-30T06:34:48.000Z,283.4
2023-03-30T06:36:14.000Z,283.4
2023-03-30T06:38:20.000Z,283.34
2023-03-30T06:39:47.000Z,283.34
2023-03-30T06:41:53.000Z,283.34
2023-03-30T06:43:19.000Z,283.34
2023-03-30T06:45:26.000Z,283.34
2023-03-30T06:46:52.000Z,283.34
2023-03-30T06:48:58.000Z,283.4
2023-03-30T06:50:25.000Z,283.4
2023-03-30T06:52:31.000Z,283.34
2023-03-30T06:55:22.000Z,283.34
2023-03-30T06:56:49.000Z,283.4
2023-03-30T06:58:55.000Z,283.34
2023-03-30T07:00:21.000Z,283.4
2023-03-30T07:02:27.000Z,283.46
2023-03-30T07:03:54.000Z,283.46
2023-03-30T07:06:01.000Z,283.46
2023-03-30T07:07:27.000Z,283.46
2023-03-30T07:09:33.000Z,283.46
2023-03-30T07:11:00.000Z,283.46
2023-03-30T07:13:06.000Z,283.52
2023-03-30T07:14:33.000Z,283.52
2023-03-30T07:16:39.000Z,283.52
2023-03-30T07:18:05.000Z,283.59
2023-03-30T07:20:12.000Z,283.52
2023-03-30T07:21:39.000Z,283.59
2023-03-30T07:23:45.000Z,283.52
2023-03-30T07:25:11.000Z,283.59
2023-03-30T07:27:17.000Z,283.59
2023-03-30T07:28:44.000Z,283.65
2023-03-30T07:30:50.000Z,283.65
2023-03-30T07:33:42.000Z,283.71
2023-03-30T07:35:08.000Z,283.71
2023-03-30T07:37:14.000Z,283.71
2023-03-30T07:38:45.000Z,283.77
2023-03-30T07:40:51.000Z,283.77
2023-03-30T07:42:18.000Z,283.77
2023-03-30T07:44:24.000Z,283.84
2023-03-30T07:45:50.000Z,283.84
2023-03-30T07:47:57.000Z,283.9
2023-03-30T07:49:23.000Z,283.9
2023-03-30T07:51:29.000Z,283.84
2023-03-30T07:52:56.000Z,283.84
2023-03-30T07:55:02.000Z,283.9
2023-03-30T07:56:28.000Z,283.96
2023-03-30T07:58:35.000Z,283.96
2023-03-30T08:00:01.000Z,284.02
2023-03-30T08:02:07.000Z,284.09
2023-03-30T08:03:34.000Z,284.21
2023-03-30T08:05:40.000Z,284.34
2023-03-30T08:07:07.000Z,284.34
2023-03-30T08:09:13.000Z,284.4
2023-03-30T08:12:04.000Z,284.52
2023-03-30T08:13:30.000Z,284.59
2023-03-30T08:15:37.000Z,284.65
2023-03-30T08:17:03.000Z,284.71
2023-03-30T08:19:09.000Z,284.77
2023-03-30T08:20:36.000Z,284.77
2023-03-30T08:22:42.000Z,284.84
2023-03-30T08:24:09.000Z,284.9
2023-03-30T08:26:15.000Z,284.96
2023-03-30T08:27:41.000Z,285.02
2023-03-30T08:29:47.000Z,285.02
2023-03-30T08:31:14.000Z,285.09
2023-03-30T08:33:20.000Z,285.21
2023-03-30T08:34:46.000Z,285.27
2023-03-30T08:36:53.000Z,285.4
2023-03-30T08:38:19.000Z,285.46
2023-03-30T08:40:25.000Z,285.4
2023-03-30T08:41:52.000Z,285.34
2023-03-30T08:43:58.000Z,285.34
2023-03-30T08:45:24.000Z,285.34
2023-03-30T08:47:30.000Z,285.34
2023-03-30T08:50:22.000Z,285.34
2023-03-30T08:51:48.000Z,285.4
2023-03-30T08:53:54.000Z,285.4
2023-03-30T08:55:21.000Z,285.4
2023-03-30T08:57:27.000Z,285.4
2023-03-30T08:58:54.000Z,285.46
2023-03-30T09:01:00.000Z,285.46
2023-03-30T09:02:27.000Z,285.4
2023-03-30T09:04:33.000Z,285.46
2023-03-30T09:05:59.000Z,285.52
2023-03-30T09:08:06.000Z,285.52
2023-03-30T09:09:32.000Z,285.52
2023-03-30T09:11:38.000Z,285.65
2023-03-30T09:13:05.000Z,285.77
2023-03-30T09:15:11.000Z,285.84
2023-03-30T09:16:37.000Z,285.9
2023-03-30T09:18:43.000Z,285.84
2023-03-30T09:20:10.000Z,285.96
2023-03-30T09:22:16.000Z,285.9
2023-03-30T09:23:43.000Z,285.96
2023-03-30T09:25:49.000Z,285.84
2023-03-30T09:28:40.000Z,285.9
2023-03-30T09:30:06.000Z,285.96
2023-03-30T09:32:13.000Z,286.09
2023-03-30T09:33:39.000Z,286.09
2023-03-30T09:35:45.000Z,286.02
2023-03-30T09:37:12.000Z,286.02
2023-03-30T09:39:18.000Z,286.02
2023-03-30T09:40:44.000Z,286.02
2023-03-30T09:42:50.000Z,286.09
2023-03-30T09:44:17.000Z,286.09
2023-03-30T09:46:23.000Z,286.15
2023-03-30T09:47:50.000Z,286.09
2023-03-30T09:49:56.000Z,286.27
2023-03-30T09:51:22.000Z,286.4
2023-03-30T09:53:28.000Z,286.59
2023-03-30T09:54:55.000Z,286.59
2023-03-30T09:57:01.000Z,286.52
2023-03-30T09:58:28.000Z,286.4
2023-03-30T10:00:34.000Z,286.4
2023-03-30T10:02:00.000Z,286.46
2023-03-30T10:04:06.000Z,286.52
2023-03-30T10:06:58.000Z,286.46
2023-03-30T10:08:42.000Z,286.46
2023-03-30T10:10:48.000Z,286.4
2023-03-30T10:12:15.000Z,286.59
2023-03-30T10:14:21.000Z,286.52
2023-03-30T10:15:47.000Z,286.46
2023-03-30T10:17:53.000Z,286.46
2023-03-30T10:19:20.000Z,286.4
2023-03-30T10:21:26.000Z,286.27
2023-03-30T10:22:53.000Z,286.34
2023-03-30T10:24:59.000Z,286.4
2023-03-30T10:26:25.000Z,286.46
2023-03-30T10:28:31.000Z,286.52
2023-03-30T10:29:58.000Z,286.65
2023-03-30T10:32:04.000Z,286.65
2023-03-30T10:33:30.000Z,286.65
2023-03-30T10:35:37.000Z,286.65
2023-03-30T10:37:03.000Z,286.65
2023-03-30T10:39:09.000Z,286.52
2023-03-30T10:40:36.000Z,286.52
2023-03-30T10:42:42.000Z,286.52
2023-03-30T10:45:33.000Z,286.71
2023-03-30T10:47:00.000Z,286.84
2023-03-30T10:49:06.000Z,286.71
2023-03-30T10:50:32.000Z,286.71
2023-03-30T10:52:38.000Z,286.77
2023-03-30T10:54:22.000Z,286.71
2023-03-30T10:56:28.000Z,286.84
2023-03-30T10:57:55.000Z,287.02
2023-03-30T11:00:01.000Z,287.09
2023-03-30T11:01:27.000Z,287.27
2023-03-30T11:03:33.000Z,287.46
2023-03-30T11:05:00.000Z,287.59
2023-03-30T11:07:06.000Z,287.77
2023-03-30T11:08:33.000Z,287.77
2023-03-30T11:10:39.000Z,287.59
2023-03-30T11:12:08.000Z,287.46
2023-03-30T11:14:14.000Z,287.34
2023-03-30T11:15:41.000Z,287.4
2023-03-30T11:17:47.000Z,287.21
2023-03-30T11:19:13.000Z,287.21
2023-03-30T11:21:20.000Z,287.27
2023-03-30T11:24:11.000Z,287.15
2023-03-30T11:25:38.000Z,287.21
2023-03-30T11:27:44.000Z,287.27
2023-03-30T11:29:10.000Z,287.27
2023-03-30T11:31:16.000Z,287.4
2023-03-30T11:32:43.000Z,287.59
2023-03-30T11:34:49.000Z,287.77
2023-03-30T11:36:16.000Z,287.77
2023-03-30T11:38:22.000Z,287.77
2023-03-30T11:39:48.000Z,287.77
2023-03-30T11:41:55.000Z,287.77
2023-03-30T11:43:21.000Z,287.65
2023-03-30T11:45:27.000Z,287.71
2023-03-30T11:46:54.000Z,288.02
2023-03-30T11:49:00.000Z,287.96
2023-03-30T11:50:27.000Z,287.96
2023-03-30T11:52:33.000Z,287.96
2023-03-30T11:53:59.000Z,287.84
2023-03-30T11:56:05.000Z,287.77
2023-03-30T11:57:32.000Z,287.77
2023-03-30T11:59:38.000Z,287.84
2023-03-30T12:02:30.000Z,288.09
2023-03-30T12:03:56.000Z,288.27
2023-03-30T12:06:03.000Z,288.34
2023-03-30T12:07:30.000Z,288.46
2023-03-30T12:09:36.000Z,288.34
2023-03-30T12:11:02.000Z,288.46
2023-03-30T12:13:09.000Z,288.59
2023-03-30T12:14:35.000Z,288.52
2023-03-30T12:16:41.000Z,288.46
2023-03-30T12:18:08.000Z,288.34
2023-03-30T12:20:14.000Z,288.21
2023-03-30T12:21:40.000Z,288.15
2023-03-30T12:23:47.000Z,287.96
2023-03-30T12:25:13.000Z,287.77
2023-03-30T12:27:19.000Z,286.27
2023-03-30T12:30:55.000Z,284.46
2023-03-30T12:32:21.000Z,284.02
2023-03-30T12:34:31.000Z,283.59
2023-03-30T12:35:58.000Z,283.59
2023-03-30T12:38:04.000Z,283.52
2023-03-30T12:40:55.000Z,283.65
2023-03-30T12:42:21.000Z,283.59
2023-03-30T12:44:28.000Z,284.15
2023-03-30T12:45:54.000Z,284.21
2023-03-30T12:48:01.000Z,284.46
2023-03-30T12:49:27.000Z,284.59
2023-03-30T12:51:33.000Z,284.84
2023-03-30T12:53:00.000Z,284.65
2023-03-30T12:55:08.000Z,284.84
2023-03-30T12:56:34.000Z,284.96
2023-03-30T12:58:40.000Z,285.21
2023-03-30T13:00:07.000Z,285.02
2023-03-30T13:02:13.000Z,285.09
2023-03-30T13:03:40.000Z,285.15
2023-03-30T13:05:46.000Z,285.15
2023-03-30T13:07:12.000Z,285.46
2023-03-30T13:09:19.000Z,285.59
2023-03-30T13:10:45.000Z,285.65
2023-03-30T13:12:51.000Z,285.59
2023-03-30T13:14:18.000Z,285.52
2023-03-30T13:16:24.000Z,285.84
2023-03-30T13:19:15.000Z,285.77
2023-03-30T13:20:41.000Z,286.02
2023-03-30T13:22:47.000Z,286.02
2023-03-30T13:24:14.000Z,285.96
2023-03-30T13:26:20.000Z,285.84
2023-03-30T13:27:59.000Z,285.9
2023-03-30T13:30:05.000Z,285.52
2023-03-30T13:31:31.000Z,285.46
2023-03-30T13:33:37.000Z,285.15
2023-03-30T13:35:04.000Z,285.09
2023-03-30T13:37:12.000Z,284.9
2023-03-30T13:38:38.000Z,284.96
2023-03-30T13:40:44.000Z,284.96
2023-03-30T13:42:28.000Z,285.09
2023-03-30T13:44:34.000Z,285.15
2023-03-30T13:46:01.000Z,285.4
2023-03-30T13:48:21.000Z,285.84
2023-03-30T13:49:47.000Z,286.02
2023-03-30T13:51:54.000Z,286.21
2023-03-30T13:53:20.000Z,286.34
2023-03-30T13:55:26.000Z,286.4
2023-03-30T13:58:20.000Z,286.52
2023-03-30T13:59:46.000Z,286.65
2023-03-30T14:01:53.000Z,286.46
2023-03-30T14:03:19.000Z,286.52
2023-03-30T14:05:25.000Z,286.46
2023-03-30T14:06:52.000Z,286.46
2023-03-30T14:08:58.000Z,286.46
2023-03-30T14:10:25.000Z,286.46
2023-03-30T14:12:31.000Z,286.46
2023-03-30T14:13:57.000Z,286.46
2023-03-30T14:16:03.000Z,286.34
2023-03-30T14:17:30.000Z,286.27
2023-03-30T14:19:36.000Z,286.4
2023-03-30T14:21:03.000Z,286.46
2023-03-30T14:23:09.000Z,286.84
2023-03-30T14:24:36.000Z,286.84
2023-03-30T14:26:42.000Z,286.96
2023-03-30T14:28:09.000Z,287.15
2023-03-30T14:30:15.000Z,287.09
2023-03-30T14:31:41.000Z,287.27
2023-03-30T14:33:57.000Z,287.15
2023-03-30T14:36:49.000Z,287.34
2023-03-30T14:38:15.000Z,287.09
2023-03-30T14:40:21.000Z,287.02
2023-03-30T14:41:48.000Z,286.84
2023-03-30T14:43:54.000Z,286.77
2023-03-30T14:45:20.000Z,286.65
2023-03-30T14:47:26.000Z,286.46
2023-03-30T14:48:53.000Z,286.4
2023-03-30T14:50:59.000Z,286.34
2023-03-30T14:52:26.000Z,286.65
2023-03-30T14:54:32.000Z,286.84
2023-03-30T14:55:58.000Z,286.9
2023-03-30T14:58:04.000Z,287.27
2023-03-30T14:59:31.000Z,287.21
2023-03-30T15:01:37.000Z,287.4
2023-03-30T15:03:04.000Z,287.09
2023-03-30T15:05:10.000Z,287.02
2023-03-30T15:06:36.000Z,287.15
2023-03-30T15:08:43.000Z,287.21
2023-03-30T15:10:09.000Z,287.15
2023-03-30T15:12:15.000Z,287.21
2023-03-30T15:15:07.000Z,287.34
2023-03-30T15:16:33.000Z,287.27
2023-03-30T15:18:39.000Z,287.52
2023-03-30T15:20:06.000Z,287.65
2023-03-30T15:22:12.000Z,287.65
2023-03-30T15:23:39.000Z,287.71
2023-03-30T15:25:45.000Z,287.77
2023-03-30T15:27:11.000Z,287.77
2023-03-30T15:29:17.000Z,287.77
2023-03-30T15:30:44.000Z,287.65
2023-03-30T15:32:50.000Z,287.65
2023-03-30T15:34:17.000Z,287.59
2023-03-30T15:36:23.000Z,287.34
2023-03-30T15:37:49.000Z,287.21
2023-03-30T15:39:56.000Z,287.15
2023-03-30T15:41:22.000Z,287.21
2023-03-30T15:43:28.000Z,287.09
2023-03-30T15:44:55.000Z,286.84
2023-03-30T15:47:01.000Z,286.77
2023-03-30T15:48:27.000Z,286.71
2023-03-30T15:50:33.000Z,286.65
2023-03-30T15:53:25.000Z,286.52
2023-03-30T15:54:51.000Z,286.46
2023-03-30T15:56:57.000Z,286.34
2023-03-30T15:58:24.000Z,286.34
2023-03-30T16:00:30.000Z,286.34
2023-03-30T16:01:56.000Z,286.27
2023-03-30T16:04:03.000Z,286.27
2023-03-30T16:05:29.000Z,286.21
2023-03-30T16:07:36.000Z,286.27
2023-03-30T16:09:02.000Z,286.27
2023-03-30T16:11:08.000Z,286.27
2023-03-30T16:12:35.000Z,286.21
2023-03-30T16:14:41.000Z,286.21
2023-03-30T16:16:07.000Z,286.15
2023-03-30T16:18:13.000Z,286.09
2023-03-30T16:19:40.000Z,286.09
2023-03-30T16:21:46.000Z,285.96
2023-03-30T16:23:12.000Z,285.96
2023-03-30T16:25:18.000Z,285.96
2023-03-30T16:26:47.000Z,285.96
2023-03-30T16:28:53.000Z,285.9
2023-03-30T16:31:44.000Z,285.9
2023-03-30T16:33:11.000Z,285.9
2023-03-30T16:35:17.000Z,285.84
2023-03-30T16:36:44.000Z,285.77
2023-03-30T16:38:50.000Z,285.71
2023-03-30T16:40:16.000Z,285.59
2023-03-30T16:42:22.000Z,285.46
2023-03-30T16:43:49.000Z,285.4
2023-03-30T16:45:55.000Z,285.59
2023-03-30T16:47:22.000Z,285.77
2023-03-30T16:49:28.000Z,285.65
2023-03-30T16:50:54.000Z,285.52
2023-03-30T16:53:00.000Z,285.27
2023-03-30T16:54:27.000Z,285.09
2023-03-30T16:56:37.000Z,285.02
2023-03-30T16:58:03.000Z,284.96
2023-03-30T17:00:09.000Z,284.84
2023-03-30T17:01:36.000Z,284.9
2023-03-30T17:03:42.000Z,284.84
2023-03-30T17:05:09.000Z,284.71
2023-03-30T17:07:15.000Z,284.65
2023-03-30T17:10:06.000Z,284.52
2023-03-30T17:11:33.000Z,284.46
2023-03-30T17:13:39.000Z,284.34
2023-03-30T17:15:05.000Z,284.27
2023-03-30T17:17:11.000Z,284.21
2023-03-30T17:18:38.000Z,284.21
2023-03-30T17:20:44.000Z,284.21
2023-03-30T17:22:10.000Z,284.21
2023-03-30T17:24:17.000Z,284.27
2023-03-30T17:27:49.000Z,284.15
2023-03-30T17:29:16.000Z,284.09
2023-03-30T17:31:22.000Z,283.96
2023-03-30T17:32:49.000Z,284.02
2023-03-30T17:34:55.000Z,284.09
2023-03-30T17:36:21.000Z,284.02
2023-03-30T17:38:28.000Z,284.02
2023-03-30T17:39:54.000Z,284.02
2023-03-30T17:42:00.000Z,283.84
2023-03-30T17:43:27.000Z,283.65
2023-03-30T17:45:33.000Z,283.59
2023-03-30T17:48:24.000Z,283.77
2023-03-30T17:49:51.000Z,283.84
2023-03-30T17:51:57.000Z,283.84
2023-03-30T17:53:23.000Z,283.77
2023-03-30T17:55:29.000Z,283.71
2023-03-30T17:56:56.000Z,283.65
2023-03-30T17:59:02.000Z,283.59
2023-03-30T18:00:29.000Z,283.59
2023-03-30T18:02:35.000Z,283.46
2023-03-30T18:04:01.000Z,283.4
2023-03-30T18:06:07.000Z,283.34
2023-03-30T18:07:34.000Z,283.34
2023-03-30T18:09:40.000Z,283.27
2023-03-30T18:11:07.000Z,283.34
2023-03-30T18:13:13.000Z,283.27
2023-03-30T18:14:40.000Z,283.27
2023-03-30T18:16:46.000Z,283.27
2023-03-30T18:18:14.000Z,283.21
2023-03-30T18:20:21.000Z,283.15
2023-03-30T18:21:47.000Z,283.15
2023-03-30T18:23:53.000Z,283.15
2023-03-30T18:26:44.000Z,283.15
2023-03-30T18:28:11.000Z,283.09
2023-03-30T18:30:17.000Z,283.09
2023-03-30T18:31:43.000Z,283.02
2023-03-30T18:33:49.000Z,282.96
2023-03-30T18:35:18.000Z,282.9
2023-03-30T18:37:24.000Z,282.96
2023-03-30T18:38:50.000Z,282.96
2023-03-30T18:40:56.000Z,283.02
2023-03-30T18:42:23.000Z,283.02
2023-03-30T18:44:29.000Z,283.02
2023-03-30T18:45:56.000Z,283.02
2023-03-30T18:48:06.000Z,282.96
2023-03-30T18:49:33.000Z,282.96
2023-03-30T18:51:39.000Z,282.9
2023-03-30T18:53:05.000Z,282.96
2023-03-30T18:55:11.000Z,283.02
2023-03-30T18:56:38.000Z,282.96
2023-03-30T18:58:44.000Z,282.84
2023-03-30T19:00:11.000Z,282.84
2023-03-30T19:02:17.000Z,282.77
2023-03-30T19:05:08.000Z,282.77
2023-03-30T19:06:34.000Z,282.77
2023-03-30T19:08:40.000Z,282.84
2023-03-30T19:10:07.000Z,282.84
2023-03-30T19:12:13.000Z,282.77
2023-03-30T19:13:39.000Z,282.77
2023-03-30T19:15:46.000Z,282.84
2023-03-30T19:17:12.000Z,282.9
2023-03-30T19:19:18.000Z,282.9
2023-03-30T19:20:45.000Z,282.9
2023-03-30T19:22:51.000Z,282.84
2023-03-30T19:24:17.000Z,282.84
2023-03-30T19:26:23.000Z,282.84
2023-03-30T19:30:03.000Z,282.84
2023-03-30T19:31:29.000Z,282.84
2023-03-30T19:33:36.000Z,282.77
2023-03-30T19:35:02.000Z,282.77
2023-03-30T19:37:08.000Z,282.84
2023-03-30T19:38:35.000Z,282.77
2023-03-30T19:40:41.000Z,282.9
2023-03-30T19:43:32.000Z,282.96
2023-03-30T19:44:59.000Z,282.9
2023-03-30T19:47:05.000Z,282.9
2023-03-30T19:48:31.000Z,282.9
2023-03-30T19:50:37.000Z,282.9
2023-03-30T19:52:04.000Z,282.9
2023-03-30T19:54:10.000Z,282.9
2023-03-30T19:55:37.000Z,282.9
2023-03-30T19:57:43.000Z,282.84
2023-03-30T19:59:09.000Z,282.84
2023-03-30T20:01:15.000Z,282.9
2023-03-30T20:02:42.000Z,282.96
2023-03-30T20:04:48.000Z,282.96
2023-03-30T20:06:15.000Z,282.9
2023-03-30T20:08:21.000Z,282.84
2023-03-30T20:09:49.000Z,282.84
2023-03-30T20:11:55.000Z,282.9
2023-03-30T20:13:22.000Z,282.9
2023-03-30T20:15:28.000Z,282.96
2023-03-30T20:16:55.000Z,283.02
2023-03-30T20:19:01.000Z,282.96
2023-03-30T20:21:52.000Z,282.9
2023-03-30T20:23:18.000Z,282.9
2023-03-30T20:25:24.000Z,282.9
2023-03-30T20:26:51.000Z,282.84
2023-03-30T20:28:57.000Z,282.84
2023-03-30T20:30:24.000Z,282.84
2023-03-30T20:32:30.000Z,282.9
2023-03-30T20:33:56.000Z,282.96
2023-03-30T20:36:02.000Z,282.96
2023-03-30T20:37:29.000Z,282.9
2023-03-30T20:39:35.000Z,282.9
2023-03-30T20:41:02.000Z,282.96
2023-03-30T20:43:08.000Z,282.9
2023-03-30T20:44:35.000Z,282.96
2023-03-30T20:46:41.000Z,282.96
2023-03-30T20:48:07.000Z,282.96
2023-03-30T20:50:14.000Z,282.96
2023-03-30T20:51:40.000Z,282.96
2023-03-30T20:53:46.000Z,282.96
2023-03-30T20:55:13.000Z,282.9
2023-03-30T20:57:19.000Z,282.9
2023-03-30T21:00:10.000Z,282.96
2023-03-30T21:01:37.000Z,282.96
2023-03-30T21:03:43.000Z,283.02
2023-03-30T21:05:09.000Z,283.21
2023-03-30T21:07:16.000Z,283.34
2023-03-30T21:08:42.000Z,283.34
2023-03-30T21:10:48.000Z,283.4
2023-03-30T21:12:15.000Z,283.34
2023-03-30T21:14:21.000Z,283.34
2023-03-30T21:15:47.000Z,283.4
2023-03-30T21:17:53.000Z,283.34
2023-03-30T21:19:20.000Z,283.34
2023-03-30T21:21:26.000Z,283.21
2023-03-30T21:22:53.000Z,283.15
2023-03-30T21:24:59.000Z,283.02
2023-03-30T21:26:25.000Z,282.96
2023-03-30T21:28:32.000Z,282.84
2023-03-30T21:29:58.000Z,282.84
2023-03-30T21:32:04.000Z,282.77
2023-03-30T21:33:31.000Z,282.77
2023-03-30T21:35:37.000Z,282.71
2023-03-30T21:38:28.000Z,282.65
2023-03-30T21:39:55.000Z,282.65
2023-03-30T21:42:01.000Z,282.59
2023-03-30T21:43:27.000Z,282.65
2023-03-30T21:45:34.000Z,282.65
2023-03-30T21:47:00.000Z,282.65
2023-03-30T21:49:06.000Z,282.59
2023-03-30T21:50:33.000Z,282.59
2023-03-30T21:52:39.000Z,282.52
2023-03-30T21:54:05.000Z,282.59
2023-03-30T21:56:11.000Z,282.59
2023-03-30T21:57:38.000Z,282.59
2023-03-30T21:59:44.000Z,282.65
2023-03-30T22:01:10.000Z,282.65
2023-03-30T22:03:17.000Z,282.77
2023-03-30T22:04:43.000Z,282.71
2023-03-30T22:06:49.000Z,282.77
2023-03-30T22:08:16.000Z,282.84
2023-03-30T22:10:22.000Z,282.77
2023-03-30T22:11:49.000Z,282.84
2023-03-30T22:13:55.000Z,282.9
2023-03-30T22:16:46.000Z,282.84
2023-03-30T22:18:12.000Z,282.84
2023-03-30T22:20:18.000Z,282.96
2023-03-30T22:21:45.000Z,282.96
2023-03-30T22:23:51.000Z,282.96
2023-03-30T22:25:17.000Z,282.96
2023-03-30T22:27:24.000Z,282.96
2023-03-30T22:28:50.000Z,282.96
2023-03-30T22:30:56.000Z,282.96
2023-03-30T22:32:23.000Z,283.02
2023-03-30T22:34:29.000Z,283.02
2023-03-30T22:35:55.000Z,283.02
2023-03-30T22:38:01.000Z,283.02
2023-03-30T22:39:28.000Z,283.02
2023-03-30T22:41:34.000Z,282.96
2023-03-30T22:43:01.000Z,282.96
2023-03-30T22:45:07.000Z,282.96
2023-03-30T22:46:33.000Z,282.96
2023-03-30T22:48:39.000Z,282.96
2023-03-30T22:50:06.000Z,282.9
2023-03-30T22:52:12.000Z,282.9
2023-03-30T22:55:03.000Z,282.9
2023-03-30T22:56:29.000Z,282.9
2023-03-30T22:58:35.000Z,282.84